sensor_id;sensor_type;location;lat;lon;timestamp;P1;durP1;ratioP1;P2;durP2;ratioP2
3547;SDS011;1788;49.400;11.092;2023-07-20T00:01:52;5.37;;;5.07;;
3547;SDS011;1788;49.400;11.092;2023-07-20T00:04:19;5.93;;;4.30;;
3547;SDS011;1788;49.400;11.092;2023-07-20T00:06:45;9.37;;;4.97;;
3547;SDS011;1788;49.400;11.092;2023-07-20T00:09:12;7.27;;;5.30;;
3547;SDS011;1788;49.400;11.092;2023-07-20T00:11:38;7.83;;;4.73;;
3547;SDS011;1788;49.400;11.092;2023-07-20T00:14:05;5.33;;;4.80;;
3547;SDS011;1788;49.400;11.092;2023-07-20T00:16:32;6.17;;;4.73;;
3547;SDS011;1788;49.400;11.092;2023-07-20T00:18:58;9.30;;;5.27;;
3547;SDS011;1788;49.400;11.092;2023-07-20T00:21:25;5.60;;;4.97;;
3547;SDS011;1788;49.400;11.092;2023-07-20T00:23:51;5.17;;;4.40;;
3547;SDS011;1788;49.400;11.092;2023-07-20T00:26:18;5.23;;;4.93;;
3547;SDS011;1788;49.400;11.092;2023-07-20T00:28:45;7.73;;;5.70;;
3547;SDS011;1788;49.400;11.092;2023-07-20T00:31:11;6.70;;;4.80;;
3547;SDS011;1788;49.400;11.092;2023-07-20T00:33:38;4.93;;;4.50;;
3547;SDS011;1788;49.400;11.092;2023-07-20T00:36:05;5.30;;;4.37;;
3547;SDS011;1788;49.400;11.092;2023-07-20T00:38:31;8.10;;;4.97;;
3547;SDS011;1788;49.400;11.092;2023-07-20T00:40:58;6.90;;;5.53;;
3547;SDS011;1788;49.400;11.092;2023-07-20T00:43:24;6.70;;;5.07;;
3547;SDS011;1788;49.400;11.092;2023-07-20T00:45:51;4.53;;;4.10;;
3547;SDS011;1788;49.400;11.092;2023-07-20T00:48:18;8.97;;;5.37;;
3547;SDS011;1788;49.400;11.092;2023-07-20T00:50:44;6.27;;;5.17;;
3547;SDS011;1788;49.400;11.092;2023-07-20T00:53:11;7.33;;;4.50;;
3547;SDS011;1788;49.400;11.092;2023-07-20T00:55:37;5.13;;;4.67;;
3547;SDS011;1788;49.400;11.092;2023-07-20T00:58:04;5.67;;;5.00;;
3547;SDS011;1788;49.400;11.092;2023-07-20T01:00:31;7.67;;;5.40;;
3547;SDS011;1788;49.400;11.092;2023-07-20T01:02:57;6.87;;;5.13;;
3547;SDS011;1788;49.400;11.092;2023-07-20T01:05:25;6.37;;;4.97;;
3547;SDS011;1788;49.400;11.092;2023-07-20T01:10:20;4.50;;;4.07;;
3547;SDS011;1788;49.400;11.092;2023-07-20T01:12:46;6.43;;;4.80;;
3547;SDS011;1788;49.400;11.092;2023-07-20T01:15:10;8.43;;;5.70;;
3547;SDS011;1788;49.400;11.092;2023-07-20T01:17:37;5.57;;;5.23;;
3547;SDS011;1788;49.400;11.092;2023-07-20T01:25:03;6.03;;;4.90;;
3547;SDS011;1788;49.400;11.092;2023-07-20T01:32:17;5.20;;;4.90;;
3547;SDS011;1788;49.400;11.092;2023-07-20T01:34:44;7.80;;;5.30;;
3547;SDS011;1788;49.400;11.092;2023-07-20T01:37:11;10.03;;;5.17;;
3547;SDS011;1788;49.400;11.092;2023-07-20T01:39:38;4.97;;;4.50;;
3547;SDS011;1788;49.400;11.092;2023-07-20T01:42:05;8.33;;;5.70;;
3547;SDS011;1788;49.400;11.092;2023-07-20T01:44:32;6.73;;;5.30;;
3547;SDS011;1788;49.400;11.092;2023-07-20T01:46:59;6.67;;;4.90;;
3547;SDS011;1788;49.400;11.092;2023-07-20T01:49:25;7.07;;;5.17;;
3547;SDS011;1788;49.400;11.092;2023-07-20T01:51:52;8.20;;;5.57;;
3547;SDS011;1788;49.400;11.092;2023-07-20T01:54:18;7.43;;;5.30;;
3547;SDS011;1788;49.400;11.092;2023-07-20T01:56:46;7.00;;;5.17;;
3547;SDS011;1788;49.400;11.092;2023-07-20T01:59:12;7.90;;;5.17;;
3547;SDS011;1788;49.400;11.092;2023-07-20T02:01:39;7.30;;;5.50;;
3547;SDS011;1788;49.400;11.092;2023-07-20T02:04:06;7.60;;;5.33;;
3547;SDS011;1788;49.400;11.092;2023-07-20T02:06:32;10.37;;;5.43;;
3547;SDS011;1788;49.400;11.092;2023-07-20T02:08:59;7.23;;;5.27;;
3547;SDS011;1788;49.400;11.092;2023-07-20T02:11:25;5.77;;;5.37;;
3547;SDS011;1788;49.400;11.092;2023-07-20T02:13:52;8.43;;;5.70;;
3547;SDS011;1788;49.400;11.092;2023-07-20T02:16:19;7.97;;;5.80;;
3547;SDS011;1788;49.400;11.092;2023-07-20T02:18:46;5.27;;;4.97;;
3547;SDS011;1788;49.400;11.092;2023-07-20T02:21:13;7.17;;;5.27;;
3547;SDS011;1788;49.400;11.092;2023-07-20T02:23:40;6.37;;;5.33;;
3547;SDS011;1788;49.400;11.092;2023-07-20T02:26:07;6.97;;;5.43;;
3547;SDS011;1788;49.400;11.092;2023-07-20T02:28:34;7.00;;;5.07;;
3547;SDS011;1788;49.400;11.092;2023-07-20T02:31:01;6.93;;;4.93;;
3547;SDS011;1788;49.400;11.092;2023-07-20T02:33:27;7.40;;;5.73;;
3547;SDS011;1788;49.400;11.092;2023-07-20T02:35:54;5.77;;;4.90;;
3547;SDS011;1788;49.400;11.092;2023-07-20T02:38:20;5.90;;;5.07;;
3547;SDS011;1788;49.400;11.092;2023-07-20T02:40:47;6.43;;;5.00;;
3547;SDS011;1788;49.400;11.092;2023-07-20T02:43:14;8.33;;;5.13;;
3547;SDS011;1788;49.400;11.092;2023-07-20T02:45:40;6.17;;;5.27;;
3547;SDS011;1788;49.400;11.092;2023-07-20T02:48:07;6.50;;;5.53;;
3547;SDS011;1788;49.400;11.092;2023-07-20T02:50:34;7.07;;;5.30;;
3547;SDS011;1788;49.400;11.092;2023-07-20T02:53:01;6.57;;;5.43;;
3547;SDS011;1788;49.400;11.092;2023-07-20T02:55:28;8.53;;;5.80;;
3547;SDS011;1788;49.400;11.092;2023-07-20T02:57:54;11.17;;;5.97;;
3547;SDS011;1788;49.400;11.092;2023-07-20T03:00:21;7.43;;;5.87;;
3547;SDS011;1788;49.400;11.092;2023-07-20T03:02:48;7.73;;;5.07;;
3547;SDS011;1788;49.400;11.092;2023-07-20T03:05:15;5.90;;;5.30;;
3547;SDS011;1788;49.400;11.092;2023-07-20T03:07:42;6.30;;;5.67;;
3547;SDS011;1788;49.400;11.092;2023-07-20T03:10:09;4.97;;;4.63;;
3547;SDS011;1788;49.400;11.092;2023-07-20T03:12:35;9.37;;;5.77;;
3547;SDS011;1788;49.400;11.092;2023-07-20T03:15:02;7.43;;;5.23;;
3547;SDS011;1788;49.400;11.092;2023-07-20T03:17:29;5.70;;;5.37;;
3547;SDS011;1788;49.400;11.092;2023-07-20T03:19:55;8.33;;;4.97;;
3547;SDS011;1788;49.400;11.092;2023-07-20T03:22:22;7.27;;;5.17;;
3547;SDS011;1788;49.400;11.092;2023-07-20T03:24:49;7.23;;;5.70;;
3547;SDS011;1788;49.400;11.092;2023-07-20T03:27:15;6.23;;;5.43;;
3547;SDS011;1788;49.400;11.092;2023-07-20T03:29:42;6.20;;;5.30;;
3547;SDS011;1788;49.400;11.092;2023-07-20T03:32:08;9.97;;;5.80;;
3547;SDS011;1788;49.400;11.092;2023-07-20T03:34:35;7.63;;;4.90;;
3547;SDS011;1788;49.400;11.092;2023-07-20T03:37:02;5.67;;;5.23;;
3547;SDS011;1788;49.400;11.092;2023-07-20T03:39:29;5.83;;;5.30;;
3547;SDS011;1788;49.400;11.092;2023-07-20T03:41:57;8.77;;;5.20;;
3547;SDS011;1788;49.400;11.092;2023-07-20T03:44:22;9.20;;;4.70;;
3547;SDS011;1788;49.400;11.092;2023-07-20T03:46:49;10.00;;;5.13;;
3547;SDS011;1788;49.400;11.092;2023-07-20T03:49:15;5.13;;;4.87;;
3547;SDS011;1788;49.400;11.092;2023-07-20T03:51:42;6.10;;;5.53;;
3547;SDS011;1788;49.400;11.092;2023-07-20T03:54:09;7.40;;;5.17;;
3547;SDS011;1788;49.400;11.092;2023-07-20T03:56:35;6.03;;;5.33;;
3547;SDS011;1788;49.400;11.092;2023-07-20T03:59:02;10.83;;;5.77;;
3547;SDS011;1788;49.400;11.092;2023-07-20T04:01:29;8.63;;;5.67;;
3547;SDS011;1788;49.400;11.092;2023-07-20T04:03:55;8.13;;;5.83;;
3547;SDS011;1788;49.400;11.092;2023-07-20T04:06:22;7.60;;;6.10;;
3547;SDS011;1788;49.400;11.092;2023-07-20T04:08:48;7.97;;;5.30;;
3547;SDS011;1788;49.400;11.092;2023-07-20T04:11:15;6.77;;;5.53;;
3547;SDS011;1788;49.400;11.092;2023-07-20T04:13:42;8.47;;;5.93;;
3547;SDS011;1788;49.400;11.092;2023-07-20T04:16:09;9.47;;;5.43;;
3547;SDS011;1788;49.400;11.092;2023-07-20T04:18:36;5.80;;;5.00;;
3547;SDS011;1788;49.400;11.092;2023-07-20T04:21:03;8.43;;;5.47;;
3547;SDS011;1788;49.400;11.092;2023-07-20T04:23:30;10.70;;;6.57;;
3547;SDS011;1788;49.400;11.092;2023-07-20T04:25:57;7.27;;;5.27;;
3547;SDS011;1788;49.400;11.092;2023-07-20T04:28:24;7.80;;;6.07;;
3547;SDS011;1788;49.400;11.092;2023-07-20T04:30:50;9.03;;;5.63;;
3547;SDS011;1788;49.400;11.092;2023-07-20T04:33:17;8.40;;;5.33;;
3547;SDS011;1788;49.400;11.092;2023-07-20T04:38:11;6.53;;;6.13;;
3547;SDS011;1788;49.400;11.092;2023-07-20T04:40:37;7.00;;;5.03;;
3547;SDS011;1788;49.400;11.092;2023-07-20T04:43:04;8.60;;;5.97;;
3547;SDS011;1788;49.400;11.092;2023-07-20T04:45:31;7.10;;;5.50;;
3547;SDS011;1788;49.400;11.092;2023-07-20T04:47:57;7.37;;;6.40;;
3547;SDS011;1788;49.400;11.092;2023-07-20T04:50:24;10.27;;;6.13;;
3547;SDS011;1788;49.400;11.092;2023-07-20T04:52:50;6.57;;;5.50;;
3547;SDS011;1788;49.400;11.092;2023-07-20T04:55:17;10.23;;;6.00;;
3547;SDS011;1788;49.400;11.092;2023-07-20T04:57:44;6.83;;;5.17;;
3547;SDS011;1788;49.400;11.092;2023-07-20T05:00:11;5.77;;;5.07;;
3547;SDS011;1788;49.400;11.092;2023-07-20T05:02:38;7.77;;;5.33;;
3547;SDS011;1788;49.400;11.092;2023-07-20T05:05:05;6.10;;;5.43;;
3547;SDS011;1788;49.400;11.092;2023-07-20T05:07:32;9.63;;;5.83;;
3547;SDS011;1788;49.400;11.092;2023-07-20T05:09:58;9.70;;;6.43;;
3547;SDS011;1788;49.400;11.092;2023-07-20T05:12:25;6.83;;;5.67;;
3547;SDS011;1788;49.400;11.092;2023-07-20T05:14:51;9.10;;;5.90;;
3547;SDS011;1788;49.400;11.092;2023-07-20T05:17:19;6.40;;;5.60;;
3547;SDS011;1788;49.400;11.092;2023-07-20T05:19:45;9.77;;;5.10;;
3547;SDS011;1788;49.400;11.092;2023-07-20T05:22:13;7.73;;;5.30;;
3547;SDS011;1788;49.400;11.092;2023-07-20T05:24:39;7.30;;;5.20;;
3547;SDS011;1788;49.400;11.092;2023-07-20T05:27:06;9.87;;;5.87;;
3547;SDS011;1788;49.400;11.092;2023-07-20T05:29:33;6.90;;;5.60;;
3547;SDS011;1788;49.400;11.092;2023-07-20T05:31:59;9.00;;;5.30;;
3547;SDS011;1788;49.400;11.092;2023-07-20T05:34:27;5.53;;;4.33;;
3547;SDS011;1788;49.400;11.092;2023-07-20T05:39:21;5.70;;;5.20;;
3547;SDS011;1788;49.400;11.092;2023-07-20T05:41:47;7.53;;;5.90;;
3547;SDS011;1788;49.400;11.092;2023-07-20T05:44:15;6.63;;;5.17;;
3547;SDS011;1788;49.400;11.092;2023-07-20T05:46:41;8.43;;;5.37;;
3547;SDS011;1788;49.400;11.092;2023-07-20T05:49:09;5.57;;;4.27;;
3547;SDS011;1788;49.400;11.092;2023-07-20T05:51:35;5.67;;;4.30;;
3547;SDS011;1788;49.400;11.092;2023-07-20T05:54:02;5.10;;;4.57;;
3547;SDS011;1788;49.400;11.092;2023-07-20T05:56:28;6.17;;;4.70;;
3547;SDS011;1788;49.400;11.092;2023-07-20T05:58:55;5.97;;;4.10;;
3547;SDS011;1788;49.400;11.092;2023-07-20T06:01:22;5.80;;;4.17;;
3547;SDS011;1788;49.400;11.092;2023-07-20T06:03:49;7.83;;;4.87;;
3547;SDS011;1788;49.400;11.092;2023-07-20T06:06:16;5.00;;;3.93;;
3547;SDS011;1788;49.400;11.092;2023-07-20T06:08:43;5.63;;;4.30;;
3547;SDS011;1788;49.400;11.092;2023-07-20T06:11:10;6.87;;;4.27;;
3547;SDS011;1788;49.400;11.092;2023-07-20T06:13:36;3.93;;;3.70;;
3547;SDS011;1788;49.400;11.092;2023-07-20T06:16:03;7.80;;;4.77;;
3547;SDS011;1788;49.400;11.092;2023-07-20T06:18:30;5.67;;;4.30;;
3547;SDS011;1788;49.400;11.092;2023-07-20T06:20:56;6.47;;;4.17;;
3547;SDS011;1788;49.400;11.092;2023-07-20T06:23:23;5.37;;;3.60;;
3547;SDS011;1788;49.400;11.092;2023-07-20T06:25:50;6.30;;;4.37;;
3547;SDS011;1788;49.400;11.092;2023-07-20T06:28:17;5.97;;;4.23;;
3547;SDS011;1788;49.400;11.092;2023-07-20T06:30:43;4.60;;;4.30;;
3547;SDS011;1788;49.400;11.092;2023-07-20T06:33:11;7.57;;;4.40;;
3547;SDS011;1788;49.400;11.092;2023-07-20T06:35:37;6.27;;;4.27;;
3547;SDS011;1788;49.400;11.092;2023-07-20T06:38:04;6.40;;;3.63;;
3547;SDS011;1788;49.400;11.092;2023-07-20T06:40:31;7.13;;;4.27;;
3547;SDS011;1788;49.400;11.092;2023-07-20T06:42:57;4.40;;;3.90;;
3547;SDS011;1788;49.400;11.092;2023-07-20T06:45:25;4.20;;;3.40;;
3547;SDS011;1788;49.400;11.092;2023-07-20T06:47:51;5.03;;;4.00;;
3547;SDS011;1788;49.400;11.092;2023-07-20T06:50:19;4.43;;;4.03;;
3547;SDS011;1788;49.400;11.092;2023-07-20T06:52:45;5.70;;;3.97;;
3547;SDS011;1788;49.400;11.092;2023-07-20T06:55:13;7.20;;;3.80;;
3547;SDS011;1788;49.400;11.092;2023-07-20T06:57:39;5.27;;;4.00;;
3547;SDS011;1788;49.400;11.092;2023-07-20T07:00:07;4.13;;;3.70;;
3547;SDS011;1788;49.400;11.092;2023-07-20T07:02:34;6.40;;;4.13;;
3547;SDS011;1788;49.400;11.092;2023-07-20T07:05:01;4.90;;;3.53;;
3547;SDS011;1788;49.400;11.092;2023-07-20T07:07:28;6.50;;;4.13;;
3547;SDS011;1788;49.400;11.092;2023-07-20T07:09:54;5.00;;;3.70;;
3547;SDS011;1788;49.400;11.092;2023-07-20T07:12:21;5.37;;;3.60;;
3547;SDS011;1788;49.400;11.092;2023-07-20T07:14:48;5.30;;;3.50;;
3547;SDS011;1788;49.400;11.092;2023-07-20T07:17:14;5.47;;;3.50;;
3547;SDS011;1788;49.400;11.092;2023-07-20T07:19:41;3.53;;;3.30;;
3547;SDS011;1788;49.400;11.092;2023-07-20T07:22:08;5.77;;;3.87;;
3547;SDS011;1788;49.400;11.092;2023-07-20T07:24:34;5.17;;;3.03;;
3547;SDS011;1788;49.400;11.092;2023-07-20T07:27:02;4.40;;;3.67;;
3547;SDS011;1788;49.400;11.092;2023-07-20T07:29:28;3.60;;;3.23;;
3547;SDS011;1788;49.400;11.092;2023-07-20T07:31:55;4.40;;;3.27;;
3547;SDS011;1788;49.400;11.092;2023-07-20T07:34:22;3.07;;;2.87;;
3547;SDS011;1788;49.400;11.092;2023-07-20T07:36:49;5.63;;;3.40;;
3547;SDS011;1788;49.400;11.092;2023-07-20T07:39:17;8.23;;;3.30;;
3547;SDS011;1788;49.400;11.092;2023-07-20T07:41:43;5.90;;;3.23;;
3547;SDS011;1788;49.400;11.092;2023-07-20T07:44:10;3.40;;;3.17;;
3547;SDS011;1788;49.400;11.092;2023-07-20T07:46:37;5.07;;;2.83;;
3547;SDS011;1788;49.400;11.092;2023-07-20T07:49:03;3.97;;;3.00;;
3547;SDS011;1788;49.400;11.092;2023-07-20T07:51:31;3.13;;;2.97;;
3547;SDS011;1788;49.400;11.092;2023-07-20T07:53:57;4.43;;;3.03;;
3547;SDS011;1788;49.400;11.092;2023-07-20T07:56:25;2.73;;;2.60;;
3547;SDS011;1788;49.400;11.092;2023-07-20T07:58:51;3.77;;;2.90;;
3547;SDS011;1788;49.400;11.092;2023-07-20T08:01:18;4.57;;;2.87;;
3547;SDS011;1788;49.400;11.092;2023-07-20T08:03:45;4.83;;;3.03;;
3547;SDS011;1788;49.400;11.092;2023-07-20T08:06:11;3.00;;;2.30;;
3547;SDS011;1788;49.400;11.092;2023-07-20T08:08:38;4.53;;;2.43;;
3547;SDS011;1788;49.400;11.092;2023-07-20T08:11:04;3.20;;;2.37;;
3547;SDS011;1788;49.400;11.092;2023-07-20T08:13:31;5.83;;;2.70;;
3547;SDS011;1788;49.400;11.092;2023-07-20T08:15:58;2.60;;;2.13;;
3547;SDS011;1788;49.400;11.092;2023-07-20T08:18:25;6.70;;;2.90;;
3547;SDS011;1788;49.400;11.092;2023-07-20T08:20:52;5.40;;;2.77;;
3547;SDS011;1788;49.400;11.092;2023-07-20T08:23:19;3.17;;;2.00;;
3547;SDS011;1788;49.400;11.092;2023-07-20T08:25:45;2.33;;;2.20;;
3547;SDS011;1788;49.400;11.092;2023-07-20T08:28:13;2.03;;;1.80;;
3547;SDS011;1788;49.400;11.092;2023-07-20T08:33:05;3.33;;;2.47;;
3547;SDS011;1788;49.400;11.092;2023-07-20T08:35:31;4.37;;;2.47;;
3547;SDS011;1788;49.400;11.092;2023-07-20T08:37:58;2.43;;;2.07;;
3547;SDS011;1788;49.400;11.092;2023-07-20T08:40:25;2.67;;;2.17;;
3547;SDS011;1788;49.400;11.092;2023-07-20T08:42:52;2.37;;;2.13;;
3547;SDS011;1788;49.400;11.092;2023-07-20T08:45:18;4.10;;;2.87;;
3547;SDS011;1788;49.400;11.092;2023-07-20T08:47:45;2.27;;;2.10;;
3547;SDS011;1788;49.400;11.092;2023-07-20T08:50:12;5.47;;;2.43;;
3547;SDS011;1788;49.400;11.092;2023-07-20T08:52:39;3.87;;;2.17;;
3547;SDS011;1788;49.400;11.092;2023-07-20T08:55:05;3.57;;;2.50;;
3547;SDS011;1788;49.400;11.092;2023-07-20T08:57:32;4.30;;;2.93;;
3547;SDS011;1788;49.400;11.092;2023-07-20T09:00:00;4.27;;;2.33;;
3547;SDS011;1788;49.400;11.092;2023-07-20T09:02:26;3.47;;;2.00;;
3547;SDS011;1788;49.400;11.092;2023-07-20T09:04:53;1.80;;;1.67;;
3547;SDS011;1788;49.400;11.092;2023-07-20T09:07:20;1.87;;;1.53;;
3547;SDS011;1788;49.400;11.092;2023-07-20T09:09:46;2.27;;;1.83;;
3547;SDS011;1788;49.400;11.092;2023-07-20T09:12:14;2.00;;;1.90;;
3547;SDS011;1788;49.400;11.092;2023-07-20T09:14:40;2.83;;;1.83;;
3547;SDS011;1788;49.400;11.092;2023-07-20T09:17:07;2.43;;;1.50;;
3547;SDS011;1788;49.400;11.092;2023-07-20T09:19:34;1.83;;;1.73;;
3547;SDS011;1788;49.400;11.092;2023-07-20T09:22:01;2.80;;;1.87;;
3547;SDS011;1788;49.400;11.092;2023-07-20T09:24:28;4.10;;;1.90;;
3547;SDS011;1788;49.400;11.092;2023-07-20T09:26:54;3.10;;;2.13;;
3547;SDS011;1788;49.400;11.092;2023-07-20T09:29:21;2.50;;;1.80;;
3547;SDS011;1788;49.400;11.092;2023-07-20T09:34:14;1.93;;;1.83;;
3547;SDS011;1788;49.400;11.092;2023-07-20T09:36:41;2.10;;;1.97;;
3547;SDS011;1788;49.400;11.092;2023-07-20T09:39:07;3.50;;;1.97;;
3547;SDS011;1788;49.400;11.092;2023-07-20T09:44:01;3.63;;;1.77;;
3547;SDS011;1788;49.400;11.092;2023-07-20T09:46:40;2.70;;;1.83;;
3547;SDS011;1788;49.400;11.092;2023-07-20T09:48:55;3.53;;;1.90;;
3547;SDS011;1788;49.400;11.092;2023-07-20T09:51:22;2.93;;;2.20;;
3547;SDS011;1788;49.400;11.092;2023-07-20T09:53:49;2.63;;;2.43;;
3547;SDS011;1788;49.400;11.092;2023-07-20T09:56:16;2.67;;;1.90;;
3547;SDS011;1788;49.400;11.092;2023-07-20T09:58:42;1.87;;;1.60;;
3547;SDS011;1788;49.400;11.092;2023-07-20T10:01:09;2.00;;;1.77;;
3547;SDS011;1788;49.400;11.092;2023-07-20T10:03:37;3.13;;;1.60;;
3547;SDS011;1788;49.400;11.092;2023-07-20T10:06:05;1.70;;;1.43;;
3547;SDS011;1788;49.400;11.092;2023-07-20T10:08:30;3.60;;;1.60;;
3547;SDS011;1788;49.400;11.092;2023-07-20T10:10:57;1.20;;;1.10;;
3547;SDS011;1788;49.400;11.092;2023-07-20T10:15:53;1.23;;;1.13;;
3547;SDS011;1788;49.400;11.092;2023-07-20T10:18:18;1.40;;;1.30;;
3547;SDS011;1788;49.400;11.092;2023-07-20T10:20:45;2.77;;;1.70;;
3547;SDS011;1788;49.400;11.092;2023-07-20T10:23:11;3.03;;;1.80;;
3547;SDS011;1788;49.400;11.092;2023-07-20T10:25:40;1.77;;;1.30;;
3547;SDS011;1788;49.400;11.092;2023-07-20T10:28:06;1.77;;;1.63;;
3547;SDS011;1788;49.400;11.092;2023-07-20T10:33:01;1.83;;;1.50;;
3547;SDS011;1788;49.400;11.092;2023-07-20T10:35:26;3.40;;;1.60;;
3547;SDS011;1788;49.400;11.092;2023-07-20T10:37:54;3.07;;;1.70;;
3547;SDS011;1788;49.400;11.092;2023-07-20T10:42:48;2.67;;;1.63;;
3547;SDS011;1788;49.400;11.092;2023-07-20T10:45:14;1.50;;;1.20;;
3547;SDS011;1788;49.400;11.092;2023-07-20T10:50:09;3.10;;;1.50;;
3547;SDS011;1788;49.400;11.092;2023-07-20T10:57:30;1.67;;;1.57;;
3547;SDS011;1788;49.400;11.092;2023-07-20T11:02:24;1.67;;;1.40;;
3547;SDS011;1788;49.400;11.092;2023-07-20T11:04:51;2.27;;;1.10;;
3547;SDS011;1788;49.400;11.092;2023-07-20T11:09:44;1.33;;;1.20;;
3547;SDS011;1788;49.400;11.092;2023-07-20T11:12:12;1.30;;;1.20;;
3547;SDS011;1788;49.400;11.092;2023-07-20T11:17:12;1.47;;;1.37;;
3547;SDS011;1788;49.400;11.092;2023-07-20T11:19:31;1.30;;;1.20;;
3547;SDS011;1788;49.400;11.092;2023-07-20T11:21:58;1.67;;;1.20;;
3547;SDS011;1788;49.400;11.092;2023-07-20T11:24:25;1.67;;;1.60;;
3547;SDS011;1788;49.400;11.092;2023-07-20T11:26:52;1.13;;;1.03;;
3547;SDS011;1788;49.400;11.092;2023-07-20T11:31:45;1.47;;;1.37;;
3547;SDS011;1788;49.400;11.092;2023-07-20T11:39:05;1.23;;;1.13;;
3547;SDS011;1788;49.400;11.092;2023-07-20T11:41:32;1.90;;;1.20;;
3547;SDS011;1788;49.400;11.092;2023-07-20T11:43:58;1.50;;;1.40;;
3547;SDS011;1788;49.400;11.092;2023-07-20T11:46:25;1.53;;;1.43;;
3547;SDS011;1788;49.400;11.092;2023-07-20T11:51:19;2.10;;;1.37;;
3547;SDS011;1788;49.400;11.092;2023-07-20T11:53:46;1.20;;;1.13;;
3547;SDS011;1788;49.400;11.092;2023-07-20T11:56:14;2.30;;;1.00;;
3547;SDS011;1788;49.400;11.092;2023-07-20T12:01:09;2.47;;;1.40;;
3547;SDS011;1788;49.400;11.092;2023-07-20T12:03:35;1.47;;;1.20;;
3547;SDS011;1788;49.400;11.092;2023-07-20T12:08:28;1.17;;;1.00;;
3547;SDS011;1788;49.400;11.092;2023-07-20T12:10:55;1.73;;;1.10;;
3547;SDS011;1788;49.400;11.092;2023-07-20T12:13:22;1.93;;;1.20;;
3547;SDS011;1788;49.400;11.092;2023-07-20T12:15:49;1.27;;;1.03;;
3547;SDS011;1788;49.400;11.092;2023-07-20T12:18:16;1.10;;;1.00;;
3547;SDS011;1788;49.400;11.092;2023-07-20T12:20:43;1.53;;;1.10;;
3547;SDS011;1788;49.400;11.092;2023-07-20T12:23:10;1.20;;;1.10;;
3547;SDS011;1788;49.400;11.092;2023-07-20T12:28:05;2.10;;;1.30;;
3547;SDS011;1788;49.400;11.092;2023-07-20T12:30:32;1.93;;;1.40;;
3547;SDS011;1788;49.400;11.092;2023-07-20T12:32:58;3.40;;;1.27;;
3547;SDS011;1788;49.400;11.092;2023-07-20T12:35:25;1.53;;;1.00;;
3547;SDS011;1788;49.400;11.092;2023-07-20T12:37:52;2.77;;;1.13;;
3547;SDS011;1788;49.400;11.092;2023-07-20T12:40:18;1.27;;;1.17;;
3547;SDS011;1788;49.400;11.092;2023-07-20T12:42:45;1.10;;;1.07;;
3547;SDS011;1788;49.400;11.092;2023-07-20T12:45:11;1.30;;;1.20;;
3547;SDS011;1788;49.400;11.092;2023-07-20T12:47:38;1.50;;;0.90;;
3547;SDS011;1788;49.400;11.092;2023-07-20T12:50:05;1.67;;;0.93;;
3547;SDS011;1788;49.400;11.092;2023-07-20T12:52:35;1.57;;;1.07;;
3547;SDS011;1788;49.400;11.092;2023-07-20T12:54:59;1.20;;;0.83;;
3547;SDS011;1788;49.400;11.092;2023-07-20T12:57:25;1.57;;;1.23;;
3547;SDS011;1788;49.400;11.092;2023-07-20T12:59:52;1.17;;;0.97;;
3547;SDS011;1788;49.400;11.092;2023-07-20T13:02:18;1.27;;;1.00;;
3547;SDS011;1788;49.400;11.092;2023-07-20T13:04:46;0.93;;;0.83;;
3547;SDS011;1788;49.400;11.092;2023-07-20T13:07:12;1.10;;;1.03;;
3547;SDS011;1788;49.400;11.092;2023-07-20T13:09:40;1.47;;;0.97;;
3547;SDS011;1788;49.400;11.092;2023-07-20T13:12:06;1.53;;;1.23;;
3547;SDS011;1788;49.400;11.092;2023-07-20T13:14:34;1.20;;;1.10;;
3547;SDS011;1788;49.400;11.092;2023-07-20T13:17:00;1.00;;;0.93;;
3547;SDS011;1788;49.400;11.092;2023-07-20T13:19:27;1.30;;;1.20;;
3547;SDS011;1788;49.400;11.092;2023-07-20T13:21:54;1.13;;;1.03;;
3547;SDS011;1788;49.400;11.092;2023-07-20T13:24:20;4.63;;;2.13;;
3547;SDS011;1788;49.400;11.092;2023-07-20T13:26:47;1.97;;;1.30;;
3547;SDS011;1788;49.400;11.092;2023-07-20T13:29:13;2.53;;;0.93;;
3547;SDS011;1788;49.400;11.092;2023-07-20T13:31:40;1.17;;;1.10;;
3547;SDS011;1788;49.400;11.092;2023-07-20T13:34:07;1.33;;;0.80;;
3547;SDS011;1788;49.400;11.092;2023-07-20T13:36:34;1.23;;;1.13;;
3547;SDS011;1788;49.400;11.092;2023-07-20T13:39:01;1.90;;;1.20;;
3547;SDS011;1788;49.400;11.092;2023-07-20T13:41:29;2.17;;;1.27;;
3547;SDS011;1788;49.400;11.092;2023-07-20T13:43:55;1.40;;;1.20;;
3547;SDS011;1788;49.400;11.092;2023-07-20T13:46:22;1.40;;;1.30;;
3547;SDS011;1788;49.400;11.092;2023-07-20T13:48:48;2.23;;;1.20;;
3547;SDS011;1788;49.400;11.092;2023-07-20T13:51:15;1.80;;;1.20;;
3547;SDS011;1788;49.400;11.092;2023-07-20T13:53:44;1.47;;;1.30;;
3547;SDS011;1788;49.400;11.092;2023-07-20T13:56:09;1.70;;;1.30;;
3547;SDS011;1788;49.400;11.092;2023-07-20T13:58:36;1.57;;;1.47;;
3547;SDS011;1788;49.400;11.092;2023-07-20T14:01:03;1.47;;;1.27;;
3547;SDS011;1788;49.400;11.092;2023-07-20T14:03:30;1.77;;;1.20;;
3547;SDS011;1788;49.400;11.092;2023-07-20T14:05:57;1.63;;;1.23;;
3547;SDS011;1788;49.400;11.092;2023-07-20T14:08:24;2.37;;;1.50;;
3547;SDS011;1788;49.400;11.092;2023-07-20T14:10:50;1.17;;;1.07;;
3547;SDS011;1788;49.400;11.092;2023-07-20T14:13:17;2.23;;;1.23;;
3547;SDS011;1788;49.400;11.092;2023-07-20T14:15:44;1.63;;;1.30;;
3547;SDS011;1788;49.400;11.092;2023-07-20T14:18:11;1.53;;;1.20;;
3547;SDS011;1788;49.400;11.092;2023-07-20T14:20:38;4.83;;;1.30;;
3547;SDS011;1788;49.400;11.092;2023-07-20T14:23:05;1.07;;;0.97;;
3547;SDS011;1788;49.400;11.092;2023-07-20T14:25:31;1.23;;;1.03;;
3547;SDS011;1788;49.400;11.092;2023-07-20T14:27:58;1.30;;;1.20;;
3547;SDS011;1788;49.400;11.092;2023-07-20T14:30:25;1.20;;;1.10;;
3547;SDS011;1788;49.400;11.092;2023-07-20T14:32:51;1.47;;;1.40;;
3547;SDS011;1788;49.400;11.092;2023-07-20T14:35:18;1.60;;;1.10;;
3547;SDS011;1788;49.400;11.092;2023-07-20T14:37:45;1.33;;;1.23;;
3547;SDS011;1788;49.400;11.092;2023-07-20T14:40:11;1.17;;;1.10;;
3547;SDS011;1788;49.400;11.092;2023-07-20T14:42:39;1.40;;;1.13;;
3547;SDS011;1788;49.400;11.092;2023-07-20T14:45:05;1.10;;;1.00;;
3547;SDS011;1788;49.400;11.092;2023-07-20T14:47:32;1.87;;;1.60;;
3547;SDS011;1788;49.400;11.092;2023-07-20T14:49:58;1.43;;;1.00;;
3547;SDS011;1788;49.400;11.092;2023-07-20T14:52:25;3.20;;;1.73;;
3547;SDS011;1788;49.400;11.092;2023-07-20T14:54:52;1.07;;;1.07;;
3547;SDS011;1788;49.400;11.092;2023-07-20T14:57:19;1.20;;;0.93;;
3547;SDS011;1788;49.400;11.092;2023-07-20T14:59:46;1.53;;;1.03;;
3547;SDS011;1788;49.400;11.092;2023-07-20T15:02:13;1.70;;;1.07;;
3547;SDS011;1788;49.400;11.092;2023-07-20T15:07:06;1.90;;;1.20;;
3547;SDS011;1788;49.400;11.092;2023-07-20T15:09:33;1.37;;;1.27;;
3547;SDS011;1788;49.400;11.092;2023-07-20T15:11:59;2.20;;;1.47;;
3547;SDS011;1788;49.400;11.092;2023-07-20T15:14:27;1.57;;;1.47;;
3547;SDS011;1788;49.400;11.092;2023-07-20T15:16:53;1.93;;;1.40;;
3547;SDS011;1788;49.400;11.092;2023-07-20T15:19:21;1.17;;;1.07;;
3547;SDS011;1788;49.400;11.092;2023-07-20T15:21:48;1.33;;;1.23;;
3547;SDS011;1788;49.400;11.092;2023-07-20T15:24:14;1.23;;;1.20;;
3547;SDS011;1788;49.400;11.092;2023-07-20T15:26:41;2.70;;;1.90;;
3547;SDS011;1788;49.400;11.092;2023-07-20T15:29:08;1.03;;;1.00;;
3547;SDS011;1788;49.400;11.092;2023-07-20T15:31:35;2.23;;;1.30;;
3547;SDS011;1788;49.400;11.092;2023-07-20T15:34:01;1.33;;;1.30;;
3547;SDS011;1788;49.400;11.092;2023-07-20T15:36:28;1.70;;;1.30;;
3547;SDS011;1788;49.400;11.092;2023-07-20T15:38:56;1.17;;;1.07;;
3547;SDS011;1788;49.400;11.092;2023-07-20T15:41:23;1.10;;;1.10;;
3547;SDS011;1788;49.400;11.092;2023-07-20T15:43:50;1.47;;;1.30;;
3547;SDS011;1788;49.400;11.092;2023-07-20T15:48:43;1.37;;;1.23;;
3547;SDS011;1788;49.400;11.092;2023-07-20T15:51:11;1.60;;;1.57;;
3547;SDS011;1788;49.400;11.092;2023-07-20T15:53:37;1.77;;;1.10;;
3547;SDS011;1788;49.400;11.092;2023-07-20T15:56:04;1.27;;;1.13;;
3547;SDS011;1788;49.400;11.092;2023-07-20T15:58:30;1.33;;;1.23;;
3547;SDS011;1788;49.400;11.092;2023-07-20T16:00:57;1.40;;;1.30;;
3547;SDS011;1788;49.400;11.092;2023-07-20T16:03:24;1.33;;;1.27;;
3547;SDS011;1788;49.400;11.092;2023-07-20T16:08:18;2.63;;;1.13;;